TW-0009 weather

CTS (China Television System) Helipad
Taipei, Taipei (municipality), Taiwan

Public forecast

Using degrees Celsius for public forecast. Weather courtesy of forecast.io.

Closest aviation weather report (METAR) to CTS (China Television System) Helipad

Closest report is Taipei Songshan Airport, 1.6 nm (2.9 km) N. Retrieved 2020/04/09 14:00 UTC (2 minutes ago):

RCSS 091400Z 10011KT 9999 FEW025 19/16 Q1020 NOSIG RMK A3013

Closest aviation forecast (TAF) to CTS (China Television System) Helipad

Closest forecast is Taipei Songshan Airport, 1.6 nm (2.9 km) N. Retrieved 2020/04/09 12:00 UTC (2 hours ago):

TAF RCSS 091100Z 0912/1012 09011KT 9999 FEW015 BKN035 TEMPO 0919/1001 10005KT TEMPO 1002/1008 09018KT